sensor_id;sensor_type;location;lat;lon;timestamp;P1;durP1;ratioP1;P2;durP2;ratioP2
18162;SDS011;9206;50.994;4.538;2022-10-03T00:00:41;8.53;;;6.13;;
18162;SDS011;9206;50.994;4.538;2022-10-03T00:04:07;7.47;;;5.77;;
18162;SDS011;9206;50.994;4.538;2022-10-03T00:07:09;7.73;;;5.43;;
18162;SDS011;9206;50.994;4.538;2022-10-03T00:10:15;9.47;;;5.97;;
18162;SDS011;9206;50.994;4.538;2022-10-03T00:13:11;8.43;;;6.10;;
18162;SDS011;9206;50.994;4.538;2022-10-03T00:16:12;7.70;;;5.80;;
18162;SDS011;9206;50.994;4.538;2022-10-03T00:19:08;6.70;;;5.97;;
18162;SDS011;9206;50.994;4.538;2022-10-03T00:22:07;7.77;;;5.70;;
18162;SDS011;9206;50.994;4.538;2022-10-03T00:25:22;13.50;;;5.83;;
18162;SDS011;9206;50.994;4.538;2022-10-03T00:28:22;8.63;;;5.63;;
18162;SDS011;9206;50.994;4.538;2022-10-03T00:31:36;7.93;;;5.30;;
18162;SDS011;9206;50.994;4.538;2022-10-03T00:34:43;10.30;;;5.60;;
18162;SDS011;9206;50.994;4.538;2022-10-03T00:37:45;6.10;;;5.50;;
18162;SDS011;9206;50.994;4.538;2022-10-03T00:41:00;6.90;;;5.43;;
18162;SDS011;9206;50.994;4.538;2022-10-03T00:44:17;9.90;;;5.83;;
18162;SDS011;9206;50.994;4.538;2022-10-03T00:47:39;9.10;;;4.87;;
18162;SDS011;9206;50.994;4.538;2022-10-03T00:51:09;10.07;;;5.30;;
18162;SDS011;9206;50.994;4.538;2022-10-03T00:57:39;11.43;;;5.87;;
18162;SDS011;9206;50.994;4.538;2022-10-03T01:00:45;7.57;;;5.20;;
18162;SDS011;9206;50.994;4.538;2022-10-03T01:03:43;13.27;;;5.70;;
18162;SDS011;9206;50.994;4.538;2022-10-03T01:06:39;7.93;;;5.27;;
18162;SDS011;9206;50.994;4.538;2022-10-03T01:09:34;5.73;;;4.80;;
18162;SDS011;9206;50.994;4.538;2022-10-03T01:15:54;8.20;;;5.57;;
18162;SDS011;9206;50.994;4.538;2022-10-03T01:18:59;6.07;;;5.30;;
18162;SDS011;9206;50.994;4.538;2022-10-03T01:21:59;8.47;;;5.07;;
18162;SDS011;9206;50.994;4.538;2022-10-03T01:25:05;7.97;;;5.40;;
18162;SDS011;9206;50.994;4.538;2022-10-03T01:31:37;8.63;;;5.20;;
18162;SDS011;9206;50.994;4.538;2022-10-03T01:34:35;5.87;;;4.87;;
18162;SDS011;9206;50.994;4.538;2022-10-03T01:40:25;10.10;;;5.33;;
18162;SDS011;9206;50.994;4.538;2022-10-03T01:43:17;6.33;;;5.53;;
18162;SDS011;9206;50.994;4.538;2022-10-03T01:46:11;6.97;;;5.10;;
18162;SDS011;9206;50.994;4.538;2022-10-03T01:49:08;7.83;;;5.40;;
18162;SDS011;9206;50.994;4.538;2022-10-03T01:52:08;8.77;;;5.13;;
18162;SDS011;9206;50.994;4.538;2022-10-03T01:55:10;7.40;;;5.87;;
18162;SDS011;9206;50.994;4.538;2022-10-03T01:58:02;6.20;;;5.40;;
18162;SDS011;9206;50.994;4.538;2022-10-03T02:00:58;6.93;;;4.97;;
18162;SDS011;9206;50.994;4.538;2022-10-03T02:04:01;10.10;;;4.90;;
18162;SDS011;9206;50.994;4.538;2022-10-03T02:07:03;11.90;;;5.60;;
18162;SDS011;9206;50.994;4.538;2022-10-03T02:10:06;10.10;;;6.03;;
18162;SDS011;9206;50.994;4.538;2022-10-03T02:13:07;7.80;;;6.10;;
18162;SDS011;9206;50.994;4.538;2022-10-03T02:18:54;8.40;;;5.53;;
18162;SDS011;9206;50.994;4.538;2022-10-03T02:24:43;10.57;;;5.47;;
18162;SDS011;9206;50.994;4.538;2022-10-03T02:27:41;9.57;;;5.27;;
18162;SDS011;9206;50.994;4.538;2022-10-03T02:34:24;13.03;;;5.03;;
18162;SDS011;9206;50.994;4.538;2022-10-03T02:37:36;10.80;;;5.23;;
18162;SDS011;9206;50.994;4.538;2022-10-03T02:44:17;8.23;;;5.10;;
18162;SDS011;9206;50.994;4.538;2022-10-03T02:47:41;7.63;;;5.50;;
18162;SDS011;9206;50.994;4.538;2022-10-03T02:51:10;10.07;;;5.97;;
18162;SDS011;9206;50.994;4.538;2022-10-03T02:57:54;9.00;;;5.40;;
18162;SDS011;9206;50.994;4.538;2022-10-03T03:08:12;9.10;;;5.90;;
18162;SDS011;9206;50.994;4.538;2022-10-03T03:21:39;9.27;;;5.77;;
18162;SDS011;9206;50.994;4.538;2022-10-03T03:24:34;5.93;;;5.40;;
18162;SDS011;9206;50.994;4.538;2022-10-03T03:27:38;8.23;;;5.97;;
18162;SDS011;9206;50.994;4.538;2022-10-03T03:30:35;7.20;;;6.10;;
18162;SDS011;9206;50.994;4.538;2022-10-03T03:33:33;6.93;;;6.27;;
18162;SDS011;9206;50.994;4.538;2022-10-03T03:36:35;6.17;;;5.57;;
18162;SDS011;9206;50.994;4.538;2022-10-03T03:39:41;7.87;;;5.70;;
18162;SDS011;9206;50.994;4.538;2022-10-03T03:42:50;9.20;;;6.43;;
18162;SDS011;9206;50.994;4.538;2022-10-03T03:45:54;13.27;;;6.20;;
18162;SDS011;9206;50.994;4.538;2022-10-03T03:49:10;6.90;;;6.03;;
18162;SDS011;9206;50.994;4.538;2022-10-03T03:52:17;7.03;;;6.10;;
18162;SDS011;9206;50.994;4.538;2022-10-03T03:55:23;7.10;;;6.47;;
18162;SDS011;9206;50.994;4.538;2022-10-03T03:58:24;12.13;;;8.30;;
18162;SDS011;9206;50.994;4.538;2022-10-03T04:04:27;13.60;;;6.93;;
18162;SDS011;9206;50.994;4.538;2022-10-03T04:07:36;9.77;;;7.17;;
18162;SDS011;9206;50.994;4.538;2022-10-03T04:10:43;7.17;;;6.57;;
18162;SDS011;9206;50.994;4.538;2022-10-03T04:13:54;10.53;;;6.60;;
18162;SDS011;9206;50.994;4.538;2022-10-03T04:17:10;6.83;;;6.23;;
18162;SDS011;9206;50.994;4.538;2022-10-03T04:23:41;9.83;;;6.90;;
18162;SDS011;9206;50.994;4.538;2022-10-03T04:26:45;9.37;;;6.30;;
18162;SDS011;9206;50.994;4.538;2022-10-03T04:29:49;11.87;;;6.13;;
18162;SDS011;9206;50.994;4.538;2022-10-03T04:32:58;9.93;;;6.80;;
18162;SDS011;9206;50.994;4.538;2022-10-03T04:39:19;6.70;;;6.03;;
18162;SDS011;9206;50.994;4.538;2022-10-03T04:42:22;7.07;;;5.97;;
18162;SDS011;9206;50.994;4.538;2022-10-03T04:45:26;7.13;;;6.13;;
18162;SDS011;9206;50.994;4.538;2022-10-03T04:48:26;10.57;;;6.30;;
18162;SDS011;9206;50.994;4.538;2022-10-03T04:51:23;7.53;;;5.73;;
18162;SDS011;9206;50.994;4.538;2022-10-03T04:54:25;6.30;;;5.70;;
18162;SDS011;9206;50.994;4.538;2022-10-03T04:57:19;6.40;;;5.90;;
18162;SDS011;9206;50.994;4.538;2022-10-03T05:00:19;6.17;;;5.57;;
18162;SDS011;9206;50.994;4.538;2022-10-03T05:03:11;6.37;;;5.77;;
18162;SDS011;9206;50.994;4.538;2022-10-03T05:06:07;7.80;;;5.83;;
18162;SDS011;9206;50.994;4.538;2022-10-03T05:09:14;6.93;;;5.33;;
18162;SDS011;9206;50.994;4.538;2022-10-03T05:12:13;9.20;;;5.90;;
18162;SDS011;9206;50.994;4.538;2022-10-03T05:15:17;6.77;;;5.77;;
18162;SDS011;9206;50.994;4.538;2022-10-03T05:18:13;11.47;;;6.30;;
18162;SDS011;9206;50.994;4.538;2022-10-03T05:21:12;8.03;;;6.10;;
18162;SDS011;9206;50.994;4.538;2022-10-03T05:24:04;9.47;;;5.77;;
18162;SDS011;9206;50.994;4.538;2022-10-03T05:27:10;6.47;;;5.73;;
18162;SDS011;9206;50.994;4.538;2022-10-03T05:30:08;9.83;;;6.20;;
18162;SDS011;9206;50.994;4.538;2022-10-03T05:33:18;14.37;;;6.63;;
18162;SDS011;9206;50.994;4.538;2022-10-03T05:36:24;6.93;;;6.23;;
18162;SDS011;9206;50.994;4.538;2022-10-03T05:39:25;11.80;;;6.63;;
18162;SDS011;9206;50.994;4.538;2022-10-03T05:45:46;11.27;;;6.47;;
18162;SDS011;9206;50.994;4.538;2022-10-03T05:48:44;9.37;;;6.37;;
18162;SDS011;9206;50.994;4.538;2022-10-03T05:51:42;19.07;;;6.80;;
18162;SDS011;9206;50.994;4.538;2022-10-03T05:54:52;8.30;;;6.43;;
18162;SDS011;9206;50.994;4.538;2022-10-03T05:58:10;12.13;;;5.93;;
18162;SDS011;9206;50.994;4.538;2022-10-03T06:07:57;13.37;;;6.23;;
18162;SDS011;9206;50.994;4.538;2022-10-03T06:11:07;10.40;;;6.37;;
18162;SDS011;9206;50.994;4.538;2022-10-03T06:17:19;15.90;;;6.43;;
18162;SDS011;9206;50.994;4.538;2022-10-03T06:38:10;9.23;;;6.17;;
18162;SDS011;9206;50.994;4.538;2022-10-03T06:48:40;7.47;;;6.80;;
18162;SDS011;9206;50.994;4.538;2022-10-03T06:51:51;13.57;;;7.70;;
18162;SDS011;9206;50.994;4.538;2022-10-03T06:58:30;21.07;;;9.13;;
18162;SDS011;9206;50.994;4.538;2022-10-03T07:05:17;12.07;;;8.23;;
18162;SDS011;9206;50.994;4.538;2022-10-03T07:19:09;28.60;;;10.27;;
18162;SDS011;9206;50.994;4.538;2022-10-03T07:36:19;24.90;;;10.53;;
18162;SDS011;9206;50.994;4.538;2022-10-03T07:46:43;15.17;;;8.80;;
18162;SDS011;9206;50.994;4.538;2022-10-03T07:50:29;19.77;;;9.83;;
18162;SDS011;9206;50.994;4.538;2022-10-03T07:57:21;20.37;;;10.00;;
18162;SDS011;9206;50.994;4.538;2022-10-03T08:00:22;17.57;;;8.97;;
18162;SDS011;9206;50.994;4.538;2022-10-03T08:03:27;16.80;;;9.50;;
18162;SDS011;9206;50.994;4.538;2022-10-03T08:06:46;22.20;;;9.37;;
18162;SDS011;9206;50.994;4.538;2022-10-03T08:09:57;14.60;;;8.97;;
18162;SDS011;9206;50.994;4.538;2022-10-03T08:16:18;16.27;;;7.87;;
18162;SDS011;9206;50.994;4.538;2022-10-03T08:19:21;10.38;;;6.30;;
18162;SDS011;9206;50.994;4.538;2022-10-03T08:22:36;10.38;;;5.55;;
18162;SDS011;9206;50.994;4.538;2022-10-03T08:25:42;7.55;;;5.70;;
18162;SDS011;9206;50.994;4.538;2022-10-03T08:28:52;15.75;;;5.50;;
18162;SDS011;9206;50.994;4.538;2022-10-03T08:38:47;13.52;;;4.95;;
18162;SDS011;9206;50.994;4.538;2022-10-03T08:41:55;8.68;;;4.00;;
18162;SDS011;9206;50.994;4.538;2022-10-03T08:48:56;5.82;;;3.70;;
18162;SDS011;9206;50.994;4.538;2022-10-03T08:52:02;6.28;;;3.85;;
18162;SDS011;9206;50.994;4.538;2022-10-03T09:02:26;9.73;;;3.80;;
18162;SDS011;9206;50.994;4.538;2022-10-03T09:09:29;9.43;;;3.55;;
18162;SDS011;9206;50.994;4.538;2022-10-03T09:12:44;5.18;;;3.35;;
18162;SDS011;9206;50.994;4.538;2022-10-03T09:23:05;9.55;;;3.65;;
18162;SDS011;9206;50.994;4.538;2022-10-03T09:26:32;7.32;;;3.88;;
18162;SDS011;9206;50.994;4.538;2022-10-03T09:43:45;7.03;;;3.45;;
18162;SDS011;9206;50.994;4.538;2022-10-03T09:53:41;9.20;;;3.33;;
18162;SDS011;9206;50.994;4.538;2022-10-03T10:00:27;5.40;;;2.50;;
18162;SDS011;9206;50.994;4.538;2022-10-03T10:07:09;7.40;;;3.10;;
18162;SDS011;9206;50.994;4.538;2022-10-03T10:10:41;8.95;;;3.58;;
18162;SDS011;9206;50.994;4.538;2022-10-03T10:17:30;8.70;;;3.42;;
18162;SDS011;9206;50.994;4.538;2022-10-03T10:24:00;8.55;;;3.10;;
18162;SDS011;9206;50.994;4.538;2022-10-03T10:30:21;5.18;;;2.38;;
18162;SDS011;9206;50.994;4.538;2022-10-03T10:40:52;4.35;;;2.20;;
18162;SDS011;9206;50.994;4.538;2022-10-03T10:51:39;10.23;;;2.50;;
18162;SDS011;9206;50.994;4.538;2022-10-03T10:55:24;4.88;;;2.22;;
18162;SDS011;9206;50.994;4.538;2022-10-03T11:06:09;5.05;;;1.63;;
18162;SDS011;9206;50.994;4.538;2022-10-03T11:26:50;2.28;;;2.00;;
18162;SDS011;9206;50.994;4.538;2022-10-03T11:43:33;6.50;;;2.22;;
18162;SDS011;9206;50.994;4.538;2022-10-03T11:46:50;6.18;;;2.20;;
18162;SDS011;9206;50.994;4.538;2022-10-03T11:53:15;2.97;;;1.83;;
18162;SDS011;9206;50.994;4.538;2022-10-03T11:56:17;4.50;;;1.77;;
18162;SDS011;9206;50.994;4.538;2022-10-03T11:59:32;6.10;;;2.17;;
18162;SDS011;9206;50.994;4.538;2022-10-03T12:09:09;5.78;;;2.40;;
18162;SDS011;9206;50.994;4.538;2022-10-03T12:12:05;6.47;;;1.83;;
18162;SDS011;9206;50.994;4.538;2022-10-03T12:15:02;6.38;;;2.47;;
18162;SDS011;9206;50.994;4.538;2022-10-03T12:18:04;5.80;;;1.63;;
18162;SDS011;9206;50.994;4.538;2022-10-03T12:21:06;3.17;;;1.90;;
18162;SDS011;9206;50.994;4.538;2022-10-03T12:23:58;4.25;;;1.50;;
18162;SDS011;9206;50.994;4.538;2022-10-03T12:26:56;4.53;;;2.10;;
18162;SDS011;9206;50.994;4.538;2022-10-03T12:29:52;5.07;;;2.05;;
18162;SDS011;9206;50.994;4.538;2022-10-03T12:32:46;3.67;;;1.90;;
18162;SDS011;9206;50.994;4.538;2022-10-03T12:35:47;5.35;;;2.15;;
18162;SDS011;9206;50.994;4.538;2022-10-03T12:42:11;9.02;;;2.42;;
18162;SDS011;9206;50.994;4.538;2022-10-03T12:45:22;4.90;;;1.98;;
18162;SDS011;9206;50.994;4.538;2022-10-03T12:48:21;4.25;;;1.90;;
18162;SDS011;9206;50.994;4.538;2022-10-03T12:51:28;6.80;;;1.88;;
18162;SDS011;9206;50.994;4.538;2022-10-03T12:57:59;5.22;;;2.03;;
18162;SDS011;9206;50.994;4.538;2022-10-03T13:00:55;7.60;;;1.83;;
18162;SDS011;9206;50.994;4.538;2022-10-03T13:03:51;4.75;;;1.90;;
18162;SDS011;9206;50.994;4.538;2022-10-03T13:09:54;4.13;;;1.80;;
18162;SDS011;9206;50.994;4.538;2022-10-03T13:12:47;3.70;;;1.63;;
18162;SDS011;9206;50.994;4.538;2022-10-03T13:15:45;4.13;;;1.77;;
18162;SDS011;9206;50.994;4.538;2022-10-03T13:18:54;4.20;;;1.55;;
18162;SDS011;9206;50.994;4.538;2022-10-03T13:21:50;4.03;;;1.45;;
18162;SDS011;9206;50.994;4.538;2022-10-03T13:24:49;5.93;;;1.67;;
18162;SDS011;9206;50.994;4.538;2022-10-03T13:27:52;3.78;;;1.70;;
18162;SDS011;9206;50.994;4.538;2022-10-03T13:30:56;6.75;;;1.90;;
18162;SDS011;9206;50.994;4.538;2022-10-03T13:33:54;2.85;;;1.63;;
18162;SDS011;9206;50.994;4.538;2022-10-03T13:36:48;2.80;;;1.63;;
18162;SDS011;9206;50.994;4.538;2022-10-03T13:39:47;3.80;;;1.30;;
18162;SDS011;9206;50.994;4.538;2022-10-03T13:42:40;3.63;;;1.88;;
18162;SDS011;9206;50.994;4.538;2022-10-03T13:45:33;3.40;;;1.95;;
18162;SDS011;9206;50.994;4.538;2022-10-03T13:48:27;4.18;;;1.95;;
18162;SDS011;9206;50.994;4.538;2022-10-03T13:51:19;7.43;;;1.65;;
18162;SDS011;9206;50.994;4.538;2022-10-03T13:54:16;4.38;;;1.73;;
18162;SDS011;9206;50.994;4.538;2022-10-03T13:57:13;4.70;;;1.40;;
18162;SDS011;9206;50.994;4.538;2022-10-03T14:00:07;6.68;;;1.92;;
18162;SDS011;9206;50.994;4.538;2022-10-03T14:03:09;6.50;;;1.88;;
18162;SDS011;9206;50.994;4.538;2022-10-03T14:06:11;2.35;;;1.70;;
18162;SDS011;9206;50.994;4.538;2022-10-03T14:09:19;7.40;;;2.17;;
18162;SDS011;9206;50.994;4.538;2022-10-03T14:12:26;2.53;;;1.60;;
18162;SDS011;9206;50.994;4.538;2022-10-03T14:15:42;4.82;;;1.90;;
18162;SDS011;9206;50.994;4.538;2022-10-03T14:18:36;3.75;;;2.17;;
18162;SDS011;9206;50.994;4.538;2022-10-03T14:21:37;7.65;;;1.98;;
18162;SDS011;9206;50.994;4.538;2022-10-03T14:24:44;7.68;;;1.75;;
18162;SDS011;9206;50.994;4.538;2022-10-03T14:27:50;4.75;;;2.13;;
18162;SDS011;9206;50.994;4.538;2022-10-03T14:30:45;4.57;;;1.80;;
18162;SDS011;9206;50.994;4.538;2022-10-03T14:33:43;3.78;;;1.70;;
18162;SDS011;9206;50.994;4.538;2022-10-03T14:36:40;4.70;;;1.92;;
18162;SDS011;9206;50.994;4.538;2022-10-03T14:39:34;3.80;;;1.63;;
18162;SDS011;9206;50.994;4.538;2022-10-03T14:42:31;3.50;;;1.77;;
18162;SDS011;9206;50.994;4.538;2022-10-03T14:45:47;4.97;;;1.50;;
18162;SDS011;9206;50.994;4.538;2022-10-03T14:48:37;5.78;;;1.48;;
18162;SDS011;9206;50.994;4.538;2022-10-03T14:51:31;7.18;;;1.52;;
18162;SDS011;9206;50.994;4.538;2022-10-03T14:54:30;3.22;;;1.80;;
18162;SDS011;9206;50.994;4.538;2022-10-03T14:57:25;2.80;;;1.60;;
18162;SDS011;9206;50.994;4.538;2022-10-03T15:00:24;3.63;;;1.90;;
18162;SDS011;9206;50.994;4.538;2022-10-03T15:03:29;4.35;;;1.77;;
18162;SDS011;9206;50.994;4.538;2022-10-03T15:09:42;2.35;;;1.95;;
18162;SDS011;9206;50.994;4.538;2022-10-03T15:12:35;4.32;;;1.70;;
18162;SDS011;9206;50.994;4.538;2022-10-03T15:15:25;6.28;;;2.33;;
18162;SDS011;9206;50.994;4.538;2022-10-03T15:18:17;5.28;;;1.70;;
18162;SDS011;9206;50.994;4.538;2022-10-03T15:21:08;5.38;;;1.90;;
18162;SDS011;9206;50.994;4.538;2022-10-03T15:24:02;4.88;;;2.17;;
18162;SDS011;9206;50.994;4.538;2022-10-03T15:26:56;3.35;;;2.25;;
18162;SDS011;9206;50.994;4.538;2022-10-03T15:29:49;5.75;;;2.28;;
18162;SDS011;9206;50.994;4.538;2022-10-03T15:32:39;5.72;;;2.65;;
18162;SDS011;9206;50.994;4.538;2022-10-03T15:35:31;3.42;;;2.10;;
18162;SDS011;9206;50.994;4.538;2022-10-03T15:38:27;6.05;;;2.33;;
18162;SDS011;9206;50.994;4.538;2022-10-03T15:44:24;4.20;;;2.55;;
18162;SDS011;9206;50.994;4.538;2022-10-03T15:47:20;6.05;;;3.08;;
18162;SDS011;9206;50.994;4.538;2022-10-03T15:50:12;5.43;;;2.67;;
18162;SDS011;9206;50.994;4.538;2022-10-03T15:53:08;4.32;;;2.83;;
18162;SDS011;9206;50.994;4.538;2022-10-03T15:56:08;8.48;;;3.22;;
18162;SDS011;9206;50.994;4.538;2022-10-03T15:59:04;4.07;;;2.58;;
18162;SDS011;9206;50.994;4.538;2022-10-03T16:01:59;6.63;;;2.85;;
18162;SDS011;9206;50.994;4.538;2022-10-03T16:04:55;5.45;;;3.00;;
18162;SDS011;9206;50.994;4.538;2022-10-03T16:07:48;11.98;;;3.63;;
18162;SDS011;9206;50.994;4.538;2022-10-03T16:10:46;8.07;;;2.58;;
18162;SDS011;9206;50.994;4.538;2022-10-03T16:13:53;5.93;;;3.08;;
18162;SDS011;9206;50.994;4.538;2022-10-03T16:16:58;4.53;;;2.53;;
18162;SDS011;9206;50.994;4.538;2022-10-03T16:19:51;4.25;;;2.60;;
18162;SDS011;9206;50.994;4.538;2022-10-03T16:22:46;5.32;;;2.95;;
18162;SDS011;9206;50.994;4.538;2022-10-03T16:25:39;7.38;;;3.30;;
18162;SDS011;9206;50.994;4.538;2022-10-03T16:28:35;16.40;;;11.32;;
18162;SDS011;9206;50.994;4.538;2022-10-03T16:31:34;4.88;;;4.30;;
18162;SDS011;9206;50.994;4.538;2022-10-03T16:34:33;7.57;;;4.90;;
18162;SDS011;9206;50.994;4.538;2022-10-03T16:37:24;5.22;;;3.25;;
18162;SDS011;9206;50.994;4.538;2022-10-03T16:43:06;6.55;;;2.67;;
18162;SDS011;9206;50.994;4.538;2022-10-03T16:46:03;7.38;;;2.78;;
18162;SDS011;9206;50.994;4.538;2022-10-03T16:48:56;7.47;;;3.22;;
18162;SDS011;9206;50.994;4.538;2022-10-03T16:52:11;4.68;;;2.70;;
18162;SDS011;9206;50.994;4.538;2022-10-03T16:55:02;3.67;;;2.55;;
18162;SDS011;9206;50.994;4.538;2022-10-03T16:57:54;3.75;;;2.50;;
18162;SDS011;9206;50.994;4.538;2022-10-03T17:00:50;6.03;;;3.70;;
18162;SDS011;9206;50.994;4.538;2022-10-03T17:03:43;8.13;;;3.30;;
18162;SDS011;9206;50.994;4.538;2022-10-03T17:09:27;7.68;;;3.90;;
18162;SDS011;9206;50.994;4.538;2022-10-03T17:12:22;7.95;;;3.50;;
18162;SDS011;9206;50.994;4.538;2022-10-03T17:15:15;8.25;;;4.03;;
18162;SDS011;9206;50.994;4.538;2022-10-03T17:18:10;7.55;;;3.45;;
18162;SDS011;9206;50.994;4.538;2022-10-03T17:21:18;9.02;;;3.80;;
18162;SDS011;9206;50.994;4.538;2022-10-03T17:24:18;5.23;;;3.43;;
18162;SDS011;9206;50.994;4.538;2022-10-03T17:27:21;8.48;;;2.90;;
18162;SDS011;9206;50.994;4.538;2022-10-03T17:36:26;8.17;;;4.23;;
18162;SDS011;9206;50.994;4.538;2022-10-03T17:46:00;8.57;;;3.50;;
18162;SDS011;9206;50.994;4.538;2022-10-03T17:48:54;9.77;;;3.63;;
18162;SDS011;9206;50.994;4.538;2022-10-03T17:54:46;6.40;;;3.30;;
18162;SDS011;9206;50.994;4.538;2022-10-03T17:57:38;8.10;;;4.33;;
18162;SDS011;9206;50.994;4.538;2022-10-03T18:00:52;10.93;;;5.90;;
18162;SDS011;9206;50.994;4.538;2022-10-03T18:03:52;15.33;;;8.53;;
18162;SDS011;9206;50.994;4.538;2022-10-03T18:06:44;21.77;;;11.00;;
18162;SDS011;9206;50.994;4.538;2022-10-03T18:09:39;33.80;;;18.27;;
18162;SDS011;9206;50.994;4.538;2022-10-03T18:12:32;58.13;;;28.10;;
18162;SDS011;9206;50.994;4.538;2022-10-03T18:15:32;57.43;;;30.33;;
18162;SDS011;9206;50.994;4.538;2022-10-03T18:18:37;63.63;;;30.53;;
18162;SDS011;9206;50.994;4.538;2022-10-03T18:21:35;53.27;;;29.63;;
18162;SDS011;9206;50.994;4.538;2022-10-03T18:24:52;62.13;;;32.30;;
18162;SDS011;9206;50.994;4.538;2022-10-03T18:27:52;37.57;;;18.60;;
18162;SDS011;9206;50.994;4.538;2022-10-03T18:31:01;37.47;;;20.17;;
18162;SDS011;9206;50.994;4.538;2022-10-03T18:33:54;24.10;;;12.50;;
18162;SDS011;9206;50.994;4.538;2022-10-03T18:36:45;22.47;;;11.10;;
18162;SDS011;9206;50.994;4.538;2022-10-03T18:39:40;15.07;;;10.60;;
18162;SDS011;9206;50.994;4.538;2022-10-03T18:42:30;20.63;;;11.97;;
18162;SDS011;9206;50.994;4.538;2022-10-03T18:45:22;20.93;;;10.73;;
18162;SDS011;9206;50.994;4.538;2022-10-03T18:48:18;12.27;;;8.80;;
18162;SDS011;9206;50.994;4.538;2022-10-03T18:51:15;13.53;;;8.53;;
18162;SDS011;9206;50.994;4.538;2022-10-03T18:54:16;12.00;;;8.13;;
18162;SDS011;9206;50.994;4.538;2022-10-03T19:00:03;11.43;;;7.77;;
18162;SDS011;9206;50.994;4.538;2022-10-03T19:02:53;8.50;;;7.60;;
18162;SDS011;9206;50.994;4.538;2022-10-03T19:05:49;8.97;;;7.63;;
18162;SDS011;9206;50.994;4.538;2022-10-03T19:08:42;11.37;;;8.00;;
18162;SDS011;9206;50.994;4.538;2022-10-03T19:11:36;10.97;;;7.70;;
18162;SDS011;9206;50.994;4.538;2022-10-03T19:14:30;7.50;;;6.80;;
18162;SDS011;9206;50.994;4.538;2022-10-03T19:17:25;9.30;;;6.07;;
18162;SDS011;9206;50.994;4.538;2022-10-03T19:20:22;11.07;;;6.80;;
18162;SDS011;9206;50.994;4.538;2022-10-03T19:23:20;10.10;;;7.53;;
18162;SDS011;9206;50.994;4.538;2022-10-03T19:26:18;10.27;;;9.13;;
18162;SDS011;9206;50.994;4.538;2022-10-03T19:29:12;10.67;;;8.90;;
18162;SDS011;9206;50.994;4.538;2022-10-03T19:32:04;37.07;;;17.27;;
18162;SDS011;9206;50.994;4.538;2022-10-03T19:35:04;22.50;;;13.60;;
18162;SDS011;9206;50.994;4.538;2022-10-03T19:38:01;13.97;;;9.20;;
18162;SDS011;9206;50.994;4.538;2022-10-03T19:41:00;25.50;;;12.33;;
18162;SDS011;9206;50.994;4.538;2022-10-03T19:43:52;15.80;;;9.47;;
18162;SDS011;9206;50.994;4.538;2022-10-03T19:47:00;11.80;;;8.73;;
18162;SDS011;9206;50.994;4.538;2022-10-03T19:50:00;14.80;;;8.93;;
18162;SDS011;9206;50.994;4.538;2022-10-03T19:52:59;10.53;;;8.03;;
18162;SDS011;9206;50.994;4.538;2022-10-03T19:55:54;11.10;;;7.77;;
18162;SDS011;9206;50.994;4.538;2022-10-03T19:58:46;11.87;;;9.20;;
18162;SDS011;9206;50.994;4.538;2022-10-03T20:01:49;14.90;;;10.90;;
18162;SDS011;9206;50.994;4.538;2022-10-03T20:04:39;20.23;;;12.23;;
18162;SDS011;9206;50.994;4.538;2022-10-03T20:07:30;15.20;;;10.73;;
18162;SDS011;9206;50.994;4.538;2022-10-03T20:13:52;21.90;;;12.63;;
18162;SDS011;9206;50.994;4.538;2022-10-03T20:16:49;10.50;;;9.43;;
18162;SDS011;9206;50.994;4.538;2022-10-03T20:19:41;14.77;;;10.73;;
18162;SDS011;9206;50.994;4.538;2022-10-03T20:22:38;19.13;;;11.70;;
18162;SDS011;9206;50.994;4.538;2022-10-03T20:25:28;21.77;;;11.03;;
18162;SDS011;9206;50.994;4.538;2022-10-03T20:28:28;15.27;;;10.70;;
18162;SDS011;9206;50.994;4.538;2022-10-03T20:40:31;17.60;;;10.27;;
18162;SDS011;9206;50.994;4.538;2022-10-03T20:43:29;21.40;;;10.50;;
18162;SDS011;9206;50.994;4.538;2022-10-03T20:46:23;14.83;;;9.90;;
18162;SDS011;9206;50.994;4.538;2022-10-03T20:52:25;13.23;;;9.60;;
18162;SDS011;9206;50.994;4.538;2022-10-03T20:55:15;10.23;;;9.30;;
18162;SDS011;9206;50.994;4.538;2022-10-03T20:58:11;12.63;;;9.33;;
18162;SDS011;9206;50.994;4.538;2022-10-03T21:01:03;11.50;;;9.13;;
18162;SDS011;9206;50.994;4.538;2022-10-03T21:04:01;13.00;;;10.13;;
18162;SDS011;9206;50.994;4.538;2022-10-03T21:06:54;8.60;;;7.80;;
18162;SDS011;9206;50.994;4.538;2022-10-03T21:09:45;9.70;;;8.73;;
18162;SDS011;9206;50.994;4.538;2022-10-03T21:12:42;12.90;;;8.37;;
18162;SDS011;9206;50.994;4.538;2022-10-03T21:15:40;10.73;;;8.23;;
18162;SDS011;9206;50.994;4.538;2022-10-03T21:18:32;14.70;;;9.17;;
18162;SDS011;9206;50.994;4.538;2022-10-03T21:21:27;8.87;;;8.07;;
18162;SDS011;9206;50.994;4.538;2022-10-03T21:24:27;9.70;;;8.53;;
18162;SDS011;9206;50.994;4.538;2022-10-03T21:27:22;11.37;;;8.67;;
18162;SDS011;9206;50.994;4.538;2022-10-03T21:30:14;13.03;;;8.97;;
18162;SDS011;9206;50.994;4.538;2022-10-03T21:33:05;10.63;;;9.53;;
18162;SDS011;9206;50.994;4.538;2022-10-03T21:36:02;16.37;;;9.60;;
18162;SDS011;9206;50.994;4.538;2022-10-03T21:38:53;14.03;;;8.90;;
18162;SDS011;9206;50.994;4.538;2022-10-03T21:41:59;11.83;;;9.93;;
18162;SDS011;9206;50.994;4.538;2022-10-03T21:44:59;10.30;;;9.10;;
18162;SDS011;9206;50.994;4.538;2022-10-03T21:48:11;12.43;;;10.13;;
18162;SDS011;9206;50.994;4.538;2022-10-03T21:51:22;16.70;;;12.90;;
18162;SDS011;9206;50.994;4.538;2022-10-03T21:54:20;16.07;;;13.63;;
18162;SDS011;9206;50.994;4.538;2022-10-03T21:57:19;15.53;;;13.93;;
18162;SDS011;9206;50.994;4.538;2022-10-03T22:00:15;14.77;;;12.10;;
18162;SDS011;9206;50.994;4.538;2022-10-03T22:03:06;23.13;;;17.57;;
18162;SDS011;9206;50.994;4.538;2022-10-03T22:06:10;20.97;;;15.53;;
18162;SDS011;9206;50.994;4.538;2022-10-03T22:09:05;16.47;;;14.23;;
18162;SDS011;9206;50.994;4.538;2022-10-03T22:11:59;14.43;;;12.57;;
18162;SDS011;9206;50.994;4.538;2022-10-03T22:14:52;14.47;;;11.90;;
18162;SDS011;9206;50.994;4.538;2022-10-03T22:17:46;17.23;;;13.53;;
18162;SDS011;9206;50.994;4.538;2022-10-03T22:20:46;15.83;;;12.00;;
18162;SDS011;9206;50.994;4.538;2022-10-03T22:23:39;13.63;;;11.23;;
18162;SDS011;9206;50.994;4.538;2022-10-03T22:26:36;12.77;;;11.47;;
18162;SDS011;9206;50.994;4.538;2022-10-03T22:29:31;16.20;;;11.07;;
18162;SDS011;9206;50.994;4.538;2022-10-03T22:32:34;11.17;;;10.20;;
18162;SDS011;9206;50.994;4.538;2022-10-03T22:35:37;8.97;;;8.17;;
18162;SDS011;9206;50.994;4.538;2022-10-03T22:38:39;12.33;;;9.40;;
18162;SDS011;9206;50.994;4.538;2022-10-03T22:41:28;13.90;;;9.27;;
18162;SDS011;9206;50.994;4.538;2022-10-03T22:44:17;14.10;;;9.30;;
18162;SDS011;9206;50.994;4.538;2022-10-03T22:47:20;9.67;;;8.67;;
18162;SDS011;9206;50.994;4.538;2022-10-03T22:50:14;15.67;;;9.70;;
18162;SDS011;9206;50.994;4.538;2022-10-03T22:55:58;13.07;;;9.20;;
18162;SDS011;9206;50.994;4.538;2022-10-03T22:59:09;10.47;;;9.37;;
18162;SDS011;9206;50.994;4.538;2022-10-03T23:02:06;9.13;;;8.33;;
18162;SDS011;9206;50.994;4.538;2022-10-03T23:04:55;22.83;;;9.73;;
18162;SDS011;9206;50.994;4.538;2022-10-03T23:07:50;9.27;;;8.43;;
18162;SDS011;9206;50.994;4.538;2022-10-03T23:10:47;10.17;;;8.63;;
18162;SDS011;9206;50.994;4.538;2022-10-03T23:13:39;11.00;;;8.10;;
18162;SDS011;9206;50.994;4.538;2022-10-03T23:16:40;9.20;;;8.30;;
18162;SDS011;9206;50.994;4.538;2022-10-03T23:19:37;9.80;;;8.80;;
18162;SDS011;9206;50.994;4.538;2022-10-03T23:25:33;9.47;;;8.00;;
18162;SDS011;9206;50.994;4.538;2022-10-03T23:28:36;9.60;;;8.70;;
18162;SDS011;9206;50.994;4.538;2022-10-03T23:31:54;9.17;;;8.30;;
18162;SDS011;9206;50.994;4.538;2022-10-03T23:38:07;10.00;;;8.90;;
18162;SDS011;9206;50.994;4.538;2022-10-03T23:41:35;9.40;;;8.60;;
18162;SDS011;9206;50.994;4.538;2022-10-03T23:44:41;12.57;;;8.83;;
18162;SDS011;9206;50.994;4.538;2022-10-03T23:47:39;9.83;;;8.90;;
18162;SDS011;9206;50.994;4.538;2022-10-03T23:50:35;11.50;;;8.67;;
18162;SDS011;9206;50.994;4.538;2022-10-03T23:56:30;9.07;;;8.27;;
18162;SDS011;9206;50.994;4.538;2022-10-03T23:59:26;9.50;;;8.60;;
